createdAt,value
2018-08-23T00:02:07.324Z,25.64
2018-08-23T00:04:33.313Z,25.64
2018-08-23T00:06:59.292Z,25.64
2018-08-23T00:09:25.279Z,25.64
2018-08-23T00:11:51.262Z,25.64
2018-08-23T00:14:17.241Z,25.65
2018-08-23T00:16:43.253Z,25.64
2018-08-23T00:19:09.240Z,25.65
2018-08-23T00:21:35.214Z,25.64
2018-08-23T00:24:01.202Z,25.64
2018-08-23T00:26:27.217Z,25.64
2018-08-23T00:28:53.194Z,25.64
2018-08-23T00:31:19.172Z,25.64
2018-08-23T00:33:45.156Z,25.64
2018-08-23T00:36:11.135Z,25.64
2018-08-23T00:38:37.109Z,25.64
2018-08-23T00:41:03.089Z,25.64
2018-08-23T00:43:29.072Z,25.64
2018-08-23T00:45:55.059Z,25.64
2018-08-23T00:48:21.079Z,25.64
2018-08-23T00:50:47.053Z,25.64
2018-08-23T00:53:13.033Z,25.63
2018-08-23T00:55:39.010Z,25.64
2018-08-23T00:58:04.992Z,25.64
2018-08-23T01:00:30.961Z,25.63
2018-08-23T01:02:56.941Z,25.64
2018-08-23T01:05:22.926Z,25.64
2018-08-23T01:07:48.901Z,25.63
2018-08-23T01:10:14.901Z,25.64
2018-08-23T01:12:40.876Z,25.63
2018-08-23T01:15:06.858Z,25.63
2018-08-23T01:17:32.830Z,25.64
2018-08-23T01:19:58.816Z,25.64
2018-08-23T01:22:24.790Z,25.64
2018-08-23T01:24:50.770Z,25.64
2018-08-23T01:27:16.744Z,25.63
2018-08-23T01:29:42.774Z,25.64
2018-08-23T01:32:08.737Z,25.63
2018-08-23T01:34:34.717Z,25.64
2018-08-23T01:37:00.693Z,25.63
2018-08-23T01:39:26.664Z,25.63
2018-08-23T01:41:52.644Z,25.64
2018-08-23T01:44:18.670Z,25.64
2018-08-23T01:46:44.644Z,25.63
2018-08-23T01:49:10.624Z,25.64
2018-08-23T01:51:36.642Z,25.63
2018-08-23T01:54:02.635Z,25.63
2018-08-23T01:56:28.610Z,25.63
2018-08-23T01:58:54.598Z,25.63
2018-08-23T02:01:20.577Z,25.63
2018-08-23T02:03:46.560Z,25.63
2018-08-23T02:06:12.536Z,25.64
2018-08-23T02:08:38.522Z,25.64
2018-08-23T02:11:04.492Z,25.63
2018-08-23T02:13:30.469Z,25.63
2018-08-23T02:15:56.440Z,25.63
2018-08-23T02:18:22.417Z,25.62
2018-08-23T02:20:48.396Z,25.63
2018-08-23T02:23:14.368Z,25.63
2018-08-23T02:25:40.348Z,25.63
2018-08-23T02:28:06.325Z,25.63
2018-08-23T02:30:32.306Z,25.63
2018-08-23T02:32:58.325Z,25.63
2018-08-23T02:35:24.302Z,25.63
2018-08-23T02:37:50.279Z,25.63
2018-08-23T02:40:16.298Z,25.63
2018-08-23T02:42:42.270Z,25.63
2018-08-23T02:45:08.300Z,25.63
2018-08-23T02:47:34.320Z,25.62
2018-08-23T02:50:00.298Z,25.63
2018-08-23T02:52:26.285Z,25.63
2018-08-23T02:54:52.265Z,25.63
2018-08-23T02:57:18.244Z,25.63
2018-08-23T02:59:44.222Z,25.63
2018-08-23T03:02:10.210Z,25.63
2018-08-23T03:04:36.187Z,25.62
2018-08-23T03:07:02.172Z,25.63
2018-08-23T03:09:28.183Z,25.62
2018-08-23T03:11:54.160Z,25.62
2018-08-23T03:14:20.134Z,25.62
2018-08-23T03:16:46.108Z,25.62
2018-08-23T03:19:12.092Z,25.62
2018-08-23T03:21:38.084Z,25.62
2018-08-23T03:24:04.078Z,25.62
2018-08-23T03:26:30.048Z,25.62
2018-08-23T03:28:56.031Z,25.62
2018-08-23T03:31:22.014Z,25.62
2018-08-23T03:33:47.992Z,25.62
2018-08-23T03:36:13.972Z,25.63
2018-08-23T03:38:39.946Z,25.62
2018-08-23T03:41:05.925Z,25.62
2018-08-23T03:43:31.900Z,25.62
2018-08-23T03:45:57.876Z,25.62
2018-08-23T03:48:23.878Z,25.62
2018-08-23T03:50:49.857Z,25.62
2018-08-23T03:53:15.847Z,25.62
2018-08-23T03:55:41.844Z,25.61
2018-08-23T03:58:07.825Z,25.61
2018-08-23T04:00:33.800Z,25.61
2018-08-23T04:02:59.781Z,25.62
2018-08-23T04:05:25.774Z,25.62
2018-08-23T04:07:51.750Z,25.62
2018-08-23T04:10:17.739Z,25.61
2018-08-23T04:12:43.720Z,25.61
2018-08-23T04:15:09.704Z,25.61
2018-08-23T04:17:35.685Z,25.61
2018-08-23T04:20:01.681Z,25.62
2018-08-23T04:22:27.653Z,25.61
2018-08-23T04:24:53.642Z,25.61
2018-08-23T04:27:19.623Z,25.61
2018-08-23T04:29:45.601Z,25.62
2018-08-23T04:32:11.587Z,25.61
2018-08-23T04:34:37.575Z,25.61
2018-08-23T04:37:03.558Z,25.62
2018-08-23T04:39:29.543Z,25.61
2018-08-23T04:41:55.526Z,25.61
2018-08-23T04:44:21.505Z,25.61
2018-08-23T04:46:47.481Z,25.61
2018-08-23T04:49:13.448Z,25.61
2018-08-23T04:51:39.434Z,25.61
2018-08-23T04:54:05.404Z,25.60
2018-08-23T04:56:31.381Z,25.61
2018-08-23T04:58:57.354Z,25.61
2018-08-23T05:01:23.332Z,25.61
2018-08-23T05:03:49.327Z,25.61
2018-08-23T05:06:15.301Z,25.61
2018-08-23T05:08:41.280Z,25.61
2018-08-23T05:11:07.256Z,25.60
2018-08-23T05:13:33.238Z,25.61
2018-08-23T05:15:59.227Z,25.61
2018-08-23T05:18:25.219Z,25.61
2018-08-23T05:20:51.194Z,25.60
2018-08-23T05:23:17.189Z,25.60
2018-08-23T05:25:43.160Z,25.60
2018-08-23T05:28:09.148Z,25.60
2018-08-23T05:30:35.161Z,25.60
2018-08-23T05:33:01.140Z,25.60
2018-08-23T05:35:27.121Z,25.60
2018-08-23T05:37:53.105Z,25.60
2018-08-23T05:40:19.090Z,25.60
2018-08-23T05:42:45.056Z,25.60
2018-08-23T05:45:11.039Z,25.60
2018-08-23T05:47:37.075Z,25.60
2018-08-23T05:50:03.032Z,25.60
2018-08-23T05:52:29.048Z,25.60
2018-08-23T05:54:55.010Z,25.60
2018-08-23T05:57:20.990Z,25.60
2018-08-23T05:59:46.965Z,25.60
2018-08-23T06:02:12.949Z,25.60
2018-08-23T06:04:38.932Z,25.60
2018-08-23T06:07:04.943Z,25.60
2018-08-23T06:09:30.890Z,25.60
2018-08-23T06:11:56.877Z,25.60
2018-08-23T06:14:22.863Z,25.60
2018-08-23T06:16:48.854Z,25.60
2018-08-23T06:19:14.842Z,25.60
2018-08-23T06:21:40.857Z,25.60
2018-08-23T06:24:06.840Z,25.60
2018-08-23T06:26:32.812Z,25.60
2018-08-23T06:28:58.801Z,25.60
2018-08-23T06:31:24.794Z,25.59
2018-08-23T06:33:50.868Z,25.60
2018-08-23T06:36:16.749Z,25.60
2018-08-23T06:38:42.858Z,25.60
2018-08-23T06:41:08.714Z,25.60
2018-08-23T06:43:34.694Z,25.60
2018-08-23T06:46:00.684Z,25.60
2018-08-23T06:48:26.662Z,25.60
2018-08-23T06:50:52.637Z,25.60
2018-08-23T06:53:18.623Z,25.60
2018-08-23T06:55:44.610Z,25.61
2018-08-23T06:58:10.582Z,25.61
2018-08-23T07:00:36.573Z,25.60
2018-08-23T07:03:02.553Z,25.60
2018-08-23T07:05:28.547Z,25.60
2018-08-23T07:07:54.510Z,25.60
2018-08-23T07:10:20.522Z,25.60
2018-08-23T07:12:46.476Z,25.61
2018-08-23T07:15:12.449Z,25.61
2018-08-23T07:17:38.528Z,25.61
2018-08-23T07:20:04.405Z,25.61
2018-08-23T07:22:30.451Z,25.61
2018-08-23T07:24:56.392Z,25.60
2018-08-23T07:27:22.368Z,25.61
2018-08-23T07:29:48.375Z,25.60
2018-08-23T07:32:14.335Z,25.60
2018-08-23T07:34:40.313Z,25.60
2018-08-23T07:37:06.309Z,25.60
2018-08-23T07:39:32.296Z,25.60
2018-08-23T07:41:58.314Z,25.60
2018-08-23T07:44:24.338Z,25.60
2018-08-23T07:46:50.321Z,25.61
2018-08-23T07:49:16.319Z,25.60
2018-08-23T07:51:42.265Z,25.61
2018-08-23T07:54:08.242Z,25.61
2018-08-23T07:56:34.224Z,25.60
2018-08-23T07:59:00.244Z,25.61
2018-08-23T08:01:26.194Z,25.61
2018-08-23T08:03:52.176Z,25.61
2018-08-23T08:06:18.159Z,25.61
2018-08-23T08:08:44.136Z,25.61
2018-08-23T08:11:10.116Z,25.60
2018-08-23T08:13:36.098Z,25.61
2018-08-23T08:16:02.082Z,25.61
2018-08-23T08:18:28.071Z,25.61
2018-08-23T08:20:54.082Z,25.61
2018-08-23T08:23:20.022Z,25.61
2018-08-23T08:25:46.005Z,25.61
2018-08-23T08:28:12.002Z,25.62
2018-08-23T08:30:37.981Z,25.62
2018-08-23T08:33:04.046Z,25.60
2018-08-23T08:35:29.981Z,25.61
2018-08-23T08:37:55.955Z,25.62
2018-08-23T08:40:21.959Z,25.61
2018-08-23T08:42:47.940Z,25.62
2018-08-23T08:45:13.910Z,25.62
2018-08-23T08:47:39.894Z,25.63
2018-08-23T08:50:05.889Z,25.63
2018-08-23T08:52:31.873Z,25.62
2018-08-23T08:54:57.855Z,25.63
2018-08-23T08:57:23.840Z,25.62
2018-08-23T08:59:49.833Z,25.63
2018-08-23T09:02:15.810Z,25.63
2018-08-23T09:04:41.787Z,25.63
2018-08-23T09:07:07.807Z,25.63
2018-08-23T09:09:33.782Z,25.64
2018-08-23T09:11:59.774Z,25.64
2018-08-23T09:14:25.764Z,25.64
2018-08-23T09:16:51.745Z,25.64
2018-08-23T09:19:17.728Z,25.65
2018-08-23T09:21:43.706Z,25.66
2018-08-23T09:24:09.689Z,25.65
2018-08-23T09:26:35.674Z,25.65
2018-08-23T09:29:01.673Z,25.65
2018-08-23T09:31:27.694Z,25.65
2018-08-23T09:33:53.715Z,25.66
2018-08-23T09:36:19.693Z,25.66
2018-08-23T09:38:45.671Z,25.66
2018-08-23T09:41:11.653Z,25.66
2018-08-23T09:43:37.630Z,25.67
2018-08-23T09:46:03.627Z,25.67
2018-08-23T09:48:29.606Z,25.66
2018-08-23T09:50:55.691Z,25.67
2018-08-23T09:53:21.567Z,25.68
2018-08-23T09:55:47.548Z,25.68
2018-08-23T09:58:13.607Z,25.68
2018-08-23T10:00:39.551Z,25.68
2018-08-23T10:03:05.529Z,25.68
2018-08-23T10:05:31.539Z,25.68
2018-08-23T10:07:57.482Z,25.68
2018-08-23T10:10:23.457Z,25.68
2018-08-23T10:12:49.437Z,25.69
2018-08-23T10:15:15.414Z,25.69
2018-08-23T10:17:41.398Z,25.69
2018-08-23T10:20:07.373Z,25.69
2018-08-23T10:22:33.393Z,25.69
2018-08-23T10:24:59.377Z,25.69
2018-08-23T10:27:25.348Z,25.70
2018-08-23T10:29:51.351Z,25.70
2018-08-23T10:32:17.456Z,25.70
2018-08-23T10:34:43.367Z,25.69
2018-08-23T10:37:09.383Z,25.70
2018-08-23T10:39:35.424Z,25.70
2018-08-23T10:42:01.382Z,25.70
2018-08-23T10:44:27.363Z,25.70
2018-08-23T10:46:53.340Z,25.71
2018-08-23T10:49:19.347Z,25.71
2018-08-23T10:51:45.352Z,25.71
2018-08-23T10:54:11.373Z,25.70
2018-08-23T10:56:37.387Z,25.71
2018-08-23T10:59:03.461Z,25.70
2018-08-23T11:01:29.369Z,25.71
2018-08-23T11:03:55.382Z,25.70
2018-08-23T11:06:21.371Z,25.70
2018-08-23T11:08:47.412Z,25.71
2018-08-23T11:11:13.388Z,25.71
2018-08-23T11:13:39.361Z,25.72
2018-08-23T11:16:05.405Z,25.71
2018-08-23T11:18:31.423Z,25.71
2018-08-23T11:20:57.431Z,25.72
2018-08-23T11:23:23.411Z,25.71
2018-08-23T11:25:49.415Z,25.72
2018-08-23T11:28:15.477Z,25.72
2018-08-23T11:30:41.486Z,25.73
2018-08-23T11:33:07.463Z,25.73
2018-08-23T11:35:33.483Z,25.72
2018-08-23T11:37:59.462Z,25.73
2018-08-23T11:40:25.516Z,25.74
2018-08-23T11:42:51.566Z,25.74
2018-08-23T11:45:17.496Z,25.73
2018-08-23T11:47:43.512Z,25.74
2018-08-23T11:50:09.494Z,25.74
2018-08-23T11:52:35.474Z,25.74
2018-08-23T11:55:01.459Z,25.74
2018-08-23T11:57:27.473Z,25.74
2018-08-23T11:59:53.487Z,25.75
2018-08-23T12:02:19.466Z,25.74
2018-08-23T12:04:45.445Z,25.75
2018-08-23T12:07:11.416Z,25.74
2018-08-23T12:09:37.436Z,25.74
2018-08-23T12:12:03.456Z,25.75
2018-08-23T12:14:29.475Z,25.74
2018-08-23T12:16:55.462Z,25.74
2018-08-23T12:19:21.443Z,25.74
2018-08-23T12:21:47.413Z,25.75
2018-08-23T12:24:13.430Z,25.75
2018-08-23T12:26:39.412Z,25.74
2018-08-23T12:29:05.392Z,25.74
2018-08-23T12:31:31.391Z,25.76
2018-08-23T12:33:57.360Z,25.74
2018-08-23T12:36:23.344Z,25.75
2018-08-23T12:38:49.342Z,25.75
2018-08-23T12:41:15.356Z,25.74
2018-08-23T12:43:41.366Z,25.74
2018-08-23T12:46:07.379Z,25.74
2018-08-23T12:48:33.382Z,25.75
2018-08-23T12:50:59.397Z,25.75
2018-08-23T12:53:25.510Z,25.75
2018-08-23T12:55:51.402Z,25.74
2018-08-23T12:58:17.445Z,25.75
2018-08-23T13:00:43.457Z,25.75
2018-08-23T13:03:09.434Z,25.75
2018-08-23T13:05:35.451Z,25.75
2018-08-23T13:08:01.431Z,25.75
2018-08-23T13:10:27.449Z,25.75
2018-08-23T13:12:53.427Z,25.75
2018-08-23T13:15:19.405Z,25.75
2018-08-23T13:17:45.394Z,25.76
2018-08-23T13:20:11.413Z,25.75
2018-08-23T13:22:37.423Z,25.75
2018-08-23T13:25:03.435Z,25.75
2018-08-23T13:27:29.527Z,25.75
2018-08-23T13:29:55.591Z,25.74
2018-08-23T13:32:21.557Z,25.75
2018-08-23T13:34:47.500Z,25.75
2018-08-23T13:37:13.524Z,25.74
2018-08-23T13:39:39.500Z,25.75
2018-08-23T13:42:05.485Z,25.75
2018-08-23T13:44:31.521Z,25.74
2018-08-23T13:46:57.496Z,25.75
2018-08-23T13:49:23.470Z,25.74
2018-08-23T13:51:49.450Z,25.75
2018-08-23T13:54:15.466Z,25.75
2018-08-23T13:56:41.485Z,25.75
2018-08-23T13:59:07.560Z,25.75
2018-08-23T14:01:33.486Z,25.75
2018-08-23T14:03:59.496Z,25.75
2018-08-23T14:06:25.541Z,25.75
2018-08-23T14:08:51.484Z,25.74
2018-08-23T14:11:17.495Z,25.76
2018-08-23T14:13:43.519Z,25.75
2018-08-23T14:16:09.499Z,25.76
2018-08-23T14:18:35.478Z,25.75
2018-08-23T14:21:01.570Z,25.75
2018-08-23T14:23:27.581Z,25.75
2018-08-23T14:25:53.597Z,25.76
2018-08-23T14:28:19.591Z,25.75
2018-08-23T14:30:45.563Z,25.76
2018-08-23T14:33:11.609Z,25.75
2018-08-23T14:35:37.578Z,25.76
2018-08-23T14:38:03.581Z,25.76
2018-08-23T14:40:29.638Z,25.75
2018-08-23T14:42:55.574Z,25.75
2018-08-23T14:45:21.546Z,25.76
2018-08-23T14:47:47.555Z,25.76
2018-08-23T14:50:13.555Z,25.76
2018-08-23T14:52:39.564Z,25.76
2018-08-23T14:55:05.605Z,25.76
2018-08-23T14:57:31.549Z,25.77
2018-08-23T14:59:57.532Z,25.78
2018-08-23T15:02:23.534Z,25.78
2018-08-23T15:04:49.524Z,25.79
2018-08-23T15:07:15.545Z,25.80
2018-08-23T15:09:41.565Z,25.80
2018-08-23T15:12:07.521Z,25.80
2018-08-23T15:14:33.529Z,25.81
2018-08-23T15:16:59.501Z,25.83
2018-08-23T15:19:25.532Z,25.83
2018-08-23T15:21:51.477Z,25.83
2018-08-23T15:24:17.455Z,25.84
2018-08-23T15:26:43.527Z,25.85
2018-08-23T15:29:09.460Z,25.86
2018-08-23T15:31:35.439Z,25.87
2018-08-23T15:34:01.418Z,25.89
2018-08-23T15:36:27.403Z,25.90
2018-08-23T15:38:53.388Z,25.91
2018-08-23T15:41:19.428Z,25.92
2018-08-23T15:43:45.414Z,25.93
2018-08-23T15:46:11.391Z,25.93
2018-08-23T15:48:37.384Z,25.94
2018-08-23T15:51:03.353Z,25.95
2018-08-23T15:53:29.330Z,25.96
2018-08-23T15:55:55.444Z,25.97
2018-08-23T15:58:21.319Z,25.98
2018-08-23T16:00:47.295Z,25.99
2018-08-23T16:03:13.303Z,26.00
2018-08-23T16:05:39.365Z,26.00
2018-08-23T16:08:05.278Z,26.01
2018-08-23T16:10:31.257Z,26.02
2018-08-23T16:12:57.241Z,26.02
2018-08-23T16:15:23.229Z,26.03
2018-08-23T16:17:49.209Z,26.04
2018-08-23T16:20:15.191Z,26.03
2018-08-23T16:22:41.166Z,26.04
2018-08-23T16:25:07.256Z,26.05
2018-08-23T16:27:33.132Z,26.05
2018-08-23T16:29:59.122Z,26.05
2018-08-23T16:32:25.109Z,26.05
2018-08-23T16:34:51.122Z,26.06
2018-08-23T16:37:17.077Z,26.05
2018-08-23T16:39:43.064Z,26.04
2018-08-23T16:42:09.037Z,26.05
2018-08-23T16:44:35.029Z,26.05
2018-08-23T16:47:01.057Z,26.04
2018-08-23T16:49:27.016Z,26.03
2018-08-23T16:51:53.024Z,26.04
2018-08-23T16:54:19.029Z,26.02
2018-08-23T16:56:45.007Z,26.01
2018-08-23T16:59:11.022Z,26.01
2018-08-23T17:01:37.003Z,26.00
2018-08-23T17:04:03.037Z,25.99
2018-08-23T17:06:28.978Z,25.99
2018-08-23T17:08:54.954Z,25.98
2018-08-23T17:11:20.940Z,25.96
2018-08-23T17:13:46.962Z,25.96
2018-08-23T17:16:12.936Z,25.96
2018-08-23T17:18:38.960Z,25.95
2018-08-23T17:21:04.905Z,25.95
2018-08-23T17:23:30.891Z,25.95
2018-08-23T17:25:56.861Z,25.94
2018-08-23T17:28:22.847Z,25.94
2018-08-23T17:30:48.876Z,25.93
2018-08-23T17:33:14.812Z,25.92
2018-08-23T17:35:40.798Z,25.93
2018-08-23T17:38:06.790Z,25.92
2018-08-23T17:40:32.784Z,25.91
2018-08-23T17:42:58.772Z,25.91
2018-08-23T17:45:24.752Z,25.90
2018-08-23T17:47:50.882Z,25.90
2018-08-23T17:50:16.872Z,25.89
2018-08-23T17:52:42.868Z,25.90
2018-08-23T17:55:08.849Z,25.89
2018-08-23T17:57:34.853Z,25.89
2018-08-23T18:00:00.830Z,25.88
2018-08-23T18:02:26.844Z,25.88
2018-08-23T18:04:52.851Z,25.87
2018-08-23T18:07:18.829Z,25.87
2018-08-23T18:09:44.810Z,25.87
2018-08-23T18:12:10.804Z,25.87
2018-08-23T18:14:36.795Z,25.87
2018-08-23T18:17:02.795Z,25.85
2018-08-23T18:19:28.788Z,25.86
2018-08-23T18:21:54.791Z,25.85
2018-08-23T18:24:20.769Z,25.85
2018-08-23T18:26:46.747Z,25.85
2018-08-23T18:29:12.773Z,25.85
2018-08-23T18:31:38.728Z,25.85
2018-08-23T18:34:04.728Z,25.84
2018-08-23T18:36:30.702Z,25.84
2018-08-23T18:38:56.677Z,25.84
2018-08-23T18:41:22.650Z,25.85
2018-08-23T18:43:48.649Z,25.84
2018-08-23T18:46:14.649Z,25.84
2018-08-23T18:48:40.640Z,25.83
2018-08-23T18:51:06.630Z,25.83
2018-08-23T18:53:32.623Z,25.83
2018-08-23T18:55:58.617Z,25.84
2018-08-23T18:58:24.593Z,25.82
2018-08-23T19:00:50.578Z,25.82
2018-08-23T19:03:16.557Z,25.82
2018-08-23T19:05:42.589Z,25.82
2018-08-23T19:08:08.524Z,25.82
2018-08-23T19:10:34.519Z,25.82
2018-08-23T19:13:00.511Z,25.82
2018-08-23T19:15:26.485Z,25.82
2018-08-23T19:17:52.462Z,25.82
2018-08-23T19:20:18.453Z,25.82
2018-08-23T19:22:44.422Z,25.82
2018-08-23T19:25:10.544Z,25.81
2018-08-23T19:27:36.384Z,25.81
2018-08-23T19:30:02.367Z,25.82
2018-08-23T19:32:28.363Z,25.81
2018-08-23T19:34:54.344Z,25.81
2018-08-23T19:37:20.322Z,25.81
2018-08-23T19:39:46.313Z,25.81
2018-08-23T19:42:12.309Z,25.81
2018-08-23T19:44:38.305Z,25.81
2018-08-23T19:47:04.300Z,25.81
2018-08-23T19:49:30.272Z,25.81
2018-08-23T19:51:56.270Z,25.81
2018-08-23T19:54:22.245Z,25.80
2018-08-23T19:56:48.245Z,25.80
2018-08-23T19:59:14.229Z,25.80
2018-08-23T20:01:40.222Z,25.80
2018-08-23T20:04:06.237Z,25.80
2018-08-23T20:06:32.314Z,25.80
2018-08-23T20:08:58.220Z,25.80
2018-08-23T20:11:24.221Z,25.80
2018-08-23T20:13:50.203Z,25.80
2018-08-23T20:16:16.211Z,25.79
2018-08-23T20:18:42.185Z,25.80
2018-08-23T20:21:08.160Z,25.80
2018-08-23T20:23:34.154Z,25.80
2018-08-23T20:26:00.149Z,25.79
2018-08-23T20:28:26.148Z,25.79
2018-08-23T20:30:52.184Z,25.79
2018-08-23T20:33:18.160Z,25.79
2018-08-23T20:35:44.177Z,25.79
2018-08-23T20:38:10.153Z,25.79
2018-08-23T20:40:36.143Z,25.79
2018-08-23T20:43:02.126Z,25.79
2018-08-23T20:45:28.159Z,25.78
2018-08-23T20:47:54.073Z,25.79
2018-08-23T20:50:20.074Z,25.78
2018-08-23T20:52:46.162Z,25.78
2018-08-23T20:55:12.026Z,25.79
2018-08-23T20:57:38.005Z,25.78
2018-08-23T21:00:04.026Z,25.78
2018-08-23T21:02:30.001Z,25.78
2018-08-23T21:04:56.000Z,25.78
2018-08-23T21:07:21.975Z,25.78
2018-08-23T21:09:48.007Z,25.78
2018-08-23T21:12:13.945Z,25.78
2018-08-23T21:14:39.940Z,25.78
2018-08-23T21:17:05.928Z,25.78
2018-08-23T21:19:31.927Z,25.77
2018-08-23T21:21:57.898Z,25.77
2018-08-23T21:24:23.876Z,25.78
2018-08-23T21:26:49.856Z,25.78
2018-08-23T21:29:15.850Z,25.78
2018-08-23T21:31:41.844Z,25.78
2018-08-23T21:34:07.822Z,25.78
2018-08-23T21:36:33.818Z,25.78
2018-08-23T21:38:59.829Z,25.78
2018-08-23T21:41:25.793Z,25.78
2018-08-23T21:43:51.768Z,25.78
2018-08-23T21:46:17.751Z,25.78
2018-08-23T21:48:43.741Z,25.78
2018-08-23T21:51:09.721Z,25.78
2018-08-23T21:53:35.723Z,25.78
2018-08-23T21:56:01.705Z,25.77
2018-08-23T21:58:27.685Z,25.78
2018-08-23T22:00:53.664Z,25.78
2018-08-23T22:03:19.657Z,25.78
2018-08-23T22:05:45.639Z,25.78
2018-08-23T22:08:11.617Z,25.77
2018-08-23T22:10:37.627Z,25.78
2018-08-23T22:13:03.609Z,25.77
2018-08-23T22:15:29.590Z,25.78
2018-08-23T22:17:55.568Z,25.78
2018-08-23T22:20:21.546Z,25.77
2018-08-23T22:22:47.523Z,25.77
2018-08-23T22:25:13.510Z,25.78
2018-08-23T22:27:39.492Z,25.77
2018-08-23T22:30:05.506Z,25.78
2018-08-23T22:32:31.491Z,25.78
2018-08-23T22:34:57.469Z,25.77
2018-08-23T22:37:23.448Z,25.77
2018-08-23T22:39:49.430Z,25.77
2018-08-23T22:42:15.405Z,25.77
2018-08-23T22:44:41.426Z,25.77
2018-08-23T22:47:07.404Z,25.77
2018-08-23T22:49:33.381Z,25.77
2018-08-23T22:51:59.360Z,25.77
2018-08-23T22:54:25.339Z,25.77
2018-08-23T22:56:51.309Z,25.77
2018-08-23T22:59:17.292Z,25.77
2018-08-23T23:01:43.270Z,25.77
2018-08-23T23:04:09.252Z,25.77
2018-08-23T23:06:35.239Z,25.77
2018-08-23T23:09:01.220Z,25.77
2018-08-23T23:11:27.217Z,25.77
2018-08-23T23:13:53.164Z,25.77
2018-08-23T23:16:19.191Z,25.77
2018-08-23T23:18:45.117Z,25.77
2018-08-23T23:21:11.092Z,25.77
2018-08-23T23:23:37.075Z,25.77
2018-08-23T23:26:03.055Z,25.78
2018-08-23T23:28:29.035Z,25.77
2018-08-23T23:30:55.007Z,25.77
2018-08-23T23:33:20.991Z,25.77
2018-08-23T23:35:46.972Z,25.77
2018-08-23T23:38:12.942Z,25.77
2018-08-23T23:40:38.916Z,25.77
2018-08-23T23:43:04.901Z,25.77
2018-08-23T23:45:30.874Z,25.77
2018-08-23T23:47:56.852Z,25.77
2018-08-23T23:50:22.834Z,25.77
2018-08-23T23:52:48.819Z,25.78
2018-08-23T23:55:14.802Z,25.77
2018-08-23T23:57:40.794Z,25.77
